Terminal Aerodrome Forecast
Issued by NWS

Home | Current Version | Previous Version | Text Only | Print | Product List | Glossary On
Versions: 1 2 3 4 5 6 7 8 9 10 11 12 13 14
000
FTUS43 KSGF 180900 AAA
TAFJLN
TAF AMD
KJLN 180922Z 1809/1906 02003KT 4SM BR SCT070
      TEMPO 1811/1813 2SM BR
     FM181300 06005KT P6SM SCT045
     FM190100 12005KT P6SM SKC=

USA.gov is the U.S. government's official web portal to all federal, state and local government web resources and services.